Ellinwood, KS (67526)

9:56 PM CDT en Abril 24, 2017 (GMT -0500)
Ellinwood High School | | Change Station

Alt 1811 ft 38.36 °N, 98.58 °W | Updated 17 seconds ago

Parcialmente nublado
Parcialmente nublado
65.7 ° F
Sensación térmica 65.7 ° F
N
0.0
Viento Variable Viento desde SE
Gusts 7.0 mph

Hoy
Alta -- | Baja -- ° F
--% Posibilidad de precipitaciones
Ayer
Alta -- | Baja -- ° F
Precip. -- pul
Presión 29.47 pul
Visibilidad 9.0 Millas
Nubes Despejado
Punto de rocío 53 ° F
Humedad 64%
Precipitaciones 0.00 pul
Espesor de la nieve No disponible.
6:45 AM 8:19 PM
Creciente menguante, 3% visible
METAR KGBD 250156Z AUTO 15009KT 9SM CLR 19/11 A2950 RMK AO2 SLP980 T01940111
Presión 29.47 pul
Visibilidad 9.0 Millas
Nubes Despejado
Punto de rocío 53 ° F
Humedad 64%
Precipitaciones 0.00 pul
Espesor de la nieve No disponible.
6:45 AM 8:19 PM
Creciente menguante, 3% visible
METAR KGBD 250156Z AUTO 15009KT 9SM CLR 19/11 A2950 RMK AO2 SLP980 T01940111

Get Severe Weather Alerts

Thanks for signing up!

Be on the lookout for a verification email in your inbox.

You'll start receiving the daily forecast at 8 AM.

×

10-Day Weather Forecast

Almanac

Astronomía

Apr. 24, 2017 Salida Puesta
Hora real
Crepúsculo civil
Crepúsculo náutico
Crepúsculo astronómico
Luna
Horas de luz
Horas de luz
Tomorrow will be .
, % of the Moon is Illuminated

Extremos de hoy

Máximos del estado Bajos del estado

Community

WunderPhotos

WunderBlog® & News

Nearby

Calidad del aire

  Calidad del aire Índice AQ Contaminante
Not available.

Grosos de nieve

Estación Profundido Altura

Actividad de terremotos

Ciudad Distance Mag. Tiempo y dato
Magnitud mínima muestra es 2,5.

Temperaturas de aguas costeras

Lugar Temperatura

Stations

Estaciones meteorológicas cercanas

Ubicación de la estación Temp. Vientos helados Punto de rocío Humedad Viento Precip. Alt Actualizado Tipo
                   

Watches & Warnings

There are currently no watches in effect.